sensor_id;sensor_type;location;lat;lon;timestamp;pressure;altitude;pressure_sealevel;temperature;humidity
32131;BME280;18639;50.716;7.086;2023-06-22T00:01:24;100530.09;;;19.95;100.00
32131;BME280;18639;50.716;7.086;2023-06-22T00:03:50;100537.69;;;19.98;100.00
32131;BME280;18639;50.716;7.086;2023-06-22T00:06:15;100532.56;;;19.96;100.00
32131;BME280;18639;50.716;7.086;2023-06-22T00:08:40;100537.69;;;19.98;100.00
32131;BME280;18639;50.716;7.086;2023-06-22T00:11:06;100528.09;;;19.89;100.00
32131;BME280;18639;50.716;7.086;2023-06-22T00:13:31;100549.13;;;19.97;100.00
32131;BME280;18639;50.716;7.086;2023-06-22T00:15:56;100556.03;;;19.98;100.00
32131;BME280;18639;50.716;7.086;2023-06-22T00:18:21;100551.75;;;19.97;100.00
32131;BME280;18639;50.716;7.086;2023-06-22T00:20:47;100545.00;;;19.94;100.00
32131;BME280;18639;50.716;7.086;2023-06-22T00:23:12;100537.59;;;19.90;100.00
32131;BME280;18639;50.716;7.086;2023-06-22T00:25:39;100533.34;;;19.89;100.00
32131;BME280;18639;50.716;7.086;2023-06-22T00:28:07;100552.59;;;19.97;100.00
32131;BME280;18639;50.716;7.086;2023-06-22T00:30:33;100555.88;;;19.99;100.00
32131;BME280;18639;50.716;7.086;2023-06-22T00:32:59;100558.34;;;20.01;100.00
32131;BME280;18639;50.716;7.086;2023-06-22T00:35:25;100556.53;;;20.01;100.00
32131;BME280;18639;50.716;7.086;2023-06-22T00:37:57;100539.56;;;19.88;100.00
32131;BME280;18639;50.716;7.086;2023-06-22T00:40:26;100553.09;;;20.01;100.00
32131;BME280;18639;50.716;7.086;2023-06-22T00:42:52;100553.09;;;20.01;100.00
32131;BME280;18639;50.716;7.086;2023-06-22T00:45:17;100535.66;;;19.92;100.00
32131;BME280;18639;50.716;7.086;2023-06-22T00:47:42;100544.72;;;19.97;100.00
32131;BME280;18639;50.716;7.086;2023-06-22T00:50:10;100533.34;;;19.89;100.00
32131;BME280;18639;50.716;7.086;2023-06-22T00:52:39;100543.91;;;19.97;100.00
32131;BME280;18639;50.716;7.086;2023-06-22T00:55:08;100536.03;;;19.97;100.00
32131;BME280;18639;50.716;7.086;2023-06-22T00:57:34;100539.28;;;19.99;100.00
32131;BME280;18639;50.716;7.086;2023-06-22T01:00:03;100545.53;;;19.98;100.00
32131;BME280;18639;50.716;7.086;2023-06-22T01:02:32;100530.56;;;19.90;100.00
32131;BME280;18639;50.716;7.086;2023-06-22T01:04:57;100536.31;;;19.94;100.00
32131;BME280;18639;50.716;7.086;2023-06-22T01:07:32;100542.75;;;19.99;100.00
32131;BME280;18639;50.716;7.086;2023-06-22T01:10:07;100546.19;;;20.00;100.00
32131;BME280;18639;50.716;7.086;2023-06-22T01:12:39;100538.09;;;19.93;100.00
32131;BME280;18639;50.716;7.086;2023-06-22T01:15:13;100547.34;;;19.97;100.00
32131;BME280;18639;50.716;7.086;2023-06-22T01:17:41;100519.84;;;19.84;100.00
32131;BME280;18639;50.716;7.086;2023-06-22T01:20:09;100530.72;;;19.89;100.00
32131;BME280;18639;50.716;7.086;2023-06-22T01:22:50;100536.63;;;19.91;100.00
32131;BME280;18639;50.716;7.086;2023-06-22T01:25:20;100531.06;;;19.94;100.00
32131;BME280;18639;50.716;7.086;2023-06-22T01:28:24;100517.59;;;19.89;100.00
32131;BME280;18639;50.716;7.086;2023-06-22T01:30:51;100531.06;;;19.94;100.00
32131;BME280;18639;50.716;7.086;2023-06-22T01:33:29;100511.84;;;19.85;100.00
32131;BME280;18639;50.716;7.086;2023-06-22T01:35:56;100517.78;;;19.87;100.00
32131;BME280;18639;50.716;7.086;2023-06-22T01:38:22;100519.84;;;19.84;100.00
32131;BME280;18639;50.716;7.086;2023-06-22T01:40:48;100510.34;;;19.83;100.00
32131;BME280;18639;50.716;7.086;2023-06-22T01:43:14;100516.25;;;19.85;100.00
32131;BME280;18639;50.716;7.086;2023-06-22T01:45:40;100505.78;;;19.85;100.00
32131;BME280;18639;50.716;7.086;2023-06-22T01:48:05;100505.78;;;19.85;100.00
32131;BME280;18639;50.716;7.086;2023-06-22T01:50:31;100501.81;;;19.81;100.00
32131;BME280;18639;50.716;7.086;2023-06-22T01:52:57;100494.56;;;19.74;100.00
32131;BME280;18639;50.716;7.086;2023-06-22T01:55:22;100482.75;;;19.70;100.00
32131;BME280;18639;50.716;7.086;2023-06-22T01:57:47;100495.38;;;19.75;100.00
32131;BME280;18639;50.716;7.086;2023-06-22T02:00:18;100482.41;;;19.73;100.00
32131;BME280;18639;50.716;7.086;2023-06-22T02:02:48;100503.81;;;19.87;100.00
32131;BME280;18639;50.716;7.086;2023-06-22T02:05:18;100495.88;;;19.79;100.00
32131;BME280;18639;50.716;7.086;2023-06-22T02:08:09;100499.56;;;19.86;100.00
32131;BME280;18639;50.716;7.086;2023-06-22T02:10:37;100502.47;;;19.83;100.00
32131;BME280;18639;50.716;7.086;2023-06-22T02:13:06;100508.06;;;19.88;100.00
32131;BME280;18639;50.716;7.086;2023-06-22T02:15:31;100515.16;;;19.87;100.00
32131;BME280;18639;50.716;7.086;2023-06-22T02:17:57;100503.28;;;19.83;100.00
32131;BME280;18639;50.716;7.086;2023-06-22T02:20:24;100497.53;;;19.80;100.00
32131;BME280;18639;50.716;7.086;2023-06-22T02:22:49;100501.97;;;19.79;100.00
32131;BME280;18639;50.716;7.086;2023-06-22T02:25:15;100514.75;;;19.82;100.00
32131;BME280;18639;50.716;7.086;2023-06-22T02:27:40;100498.66;;;19.77;100.00
32131;BME280;18639;50.716;7.086;2023-06-22T02:30:07;100505.28;;;19.81;100.00
32131;BME280;18639;50.716;7.086;2023-06-22T02:32:33;100507.72;;;19.83;100.00
32131;BME280;18639;50.716;7.086;2023-06-22T02:34:59;100500.84;;;19.82;100.00
32131;BME280;18639;50.716;7.086;2023-06-22T02:37:24;100503.28;;;19.83;100.00
32131;BME280;18639;50.716;7.086;2023-06-22T02:39:50;100490.66;;;19.79;100.00
32131;BME280;18639;50.716;7.086;2023-06-22T02:42:15;100497.53;;;19.80;100.00
32131;BME280;18639;50.716;7.086;2023-06-22T02:44:45;100487.16;;;19.70;100.00
32131;BME280;18639;50.716;7.086;2023-06-22T02:47:10;100505.78;;;19.85;100.00
32131;BME280;18639;50.716;7.086;2023-06-22T02:49:36;100505.28;;;19.81;100.00
32131;BME280;18639;50.716;7.086;2023-06-22T02:52:01;100499.84;;;19.83;100.00
32131;BME280;18639;50.716;7.086;2023-06-22T02:54:26;100480.78;;;19.72;100.00
32131;BME280;18639;50.716;7.086;2023-06-22T02:56:52;100481.94;;;19.78;100.00
32131;BME280;18639;50.716;7.086;2023-06-22T02:59:17;100468.00;;;19.77;100.00
32131;BME280;18639;50.716;7.086;2023-06-22T03:01:42;100471.00;;;19.83;100.00
32131;BME280;18639;50.716;7.086;2023-06-22T03:04:09;100477.59;;;19.87;100.00
32131;BME280;18639;50.716;7.086;2023-06-22T03:06:35;100472.84;;;19.90;100.00
32131;BME280;18639;50.716;7.086;2023-06-22T03:09:02;100472.19;;;19.88;100.00
32131;BME280;18639;50.716;7.086;2023-06-22T03:11:29;100480.88;;;19.89;100.00
32131;BME280;18639;50.716;7.086;2023-06-22T03:13:55;100472.34;;;19.87;100.00
32131;BME280;18639;50.716;7.086;2023-06-22T03:16:20;100469.38;;;19.82;100.00
32131;BME280;18639;50.716;7.086;2023-06-22T03:18:45;100457.84;;;19.74;100.00
32131;BME280;18639;50.716;7.086;2023-06-22T03:21:10;100481.47;;;19.83;100.00
32131;BME280;18639;50.716;7.086;2023-06-22T03:23:36;100462.78;;;19.77;100.00
32131;BME280;18639;50.716;7.086;2023-06-22T03:26:01;100453.22;;;19.68;100.00
32131;BME280;18639;50.716;7.086;2023-06-22T03:28:27;100454.03;;;19.69;100.00
32131;BME280;18639;50.716;7.086;2023-06-22T03:30:52;100472.34;;;19.87;100.00
32131;BME280;18639;50.716;7.086;2023-06-22T03:33:17;100457.22;;;19.81;100.00
32131;BME280;18639;50.716;7.086;2023-06-22T03:35:42;100456.91;;;19.84;100.00
32131;BME280;18639;50.716;7.086;2023-06-22T03:38:08;100462.16;;;19.84;100.00
32131;BME280;18639;50.716;7.086;2023-06-22T03:40:33;100459.69;;;19.82;100.00
32131;BME280;18639;50.716;7.086;2023-06-22T03:42:58;100459.03;;;19.80;100.00
32131;BME280;18639;50.716;7.086;2023-06-22T03:45:24;100454.41;;;19.74;100.00
32131;BME280;18639;50.716;7.086;2023-06-22T03:47:49;100451.63;;;19.75;100.00
32131;BME280;18639;50.716;7.086;2023-06-22T03:50:14;100448.31;;;19.73;100.00
32131;BME280;18639;50.716;7.086;2023-06-22T03:52:40;100447.97;;;19.68;100.00
32131;BME280;18639;50.716;7.086;2023-06-22T03:55:06;100457.84;;;19.74;100.00
32131;BME280;18639;50.716;7.086;2023-06-22T03:57:31;100418.41;;;19.58;100.00
32131;BME280;18639;50.716;7.086;2023-06-22T03:59:57;100434.72;;;19.70;100.00
32131;BME280;18639;50.716;7.086;2023-06-22T04:02:23;100435.22;;;19.73;100.00
32131;BME280;18639;50.716;7.086;2023-06-22T04:04:48;100432.28;;;19.76;100.00
32131;BME280;18639;50.716;7.086;2023-06-22T04:07:14;100404.81;;;19.55;100.00
32131;BME280;18639;50.716;7.086;2023-06-22T04:09:39;100442.63;;;19.78;100.00
32131;BME280;18639;50.716;7.086;2023-06-22T04:12:05;100450.00;;;19.83;100.00
32131;BME280;18639;50.716;7.086;2023-06-22T04:14:30;100434.28;;;19.83;100.00
32131;BME280;18639;50.716;7.086;2023-06-22T04:16:55;100429.22;;;19.81;100.00
32131;BME280;18639;50.716;7.086;2023-06-22T04:19:20;100435.63;;;19.87;100.00
32131;BME280;18639;50.716;7.086;2023-06-22T04:21:46;100431.00;;;19.81;100.00
32131;BME280;18639;50.716;7.086;2023-06-22T04:24:13;100443.84;;;19.92;100.00
32131;BME280;18639;50.716;7.086;2023-06-22T04:26:38;100439.56;;;19.91;100.00
32131;BME280;18639;50.716;7.086;2023-06-22T04:29:06;100415.91;;;19.83;100.00
32131;BME280;18639;50.716;7.086;2023-06-22T04:31:34;100431.72;;;19.91;100.00
32131;BME280;18639;50.716;7.086;2023-06-22T04:34:02;100438.94;;;19.97;100.00
32131;BME280;18639;50.716;7.086;2023-06-22T04:36:36;100429.91;;;19.91;100.00
32131;BME280;18639;50.716;7.086;2023-06-22T04:39:10;100439.94;;;19.96;100.00
32131;BME280;18639;50.716;7.086;2023-06-22T04:41:36;100398.28;;;19.67;100.00
32131;BME280;18639;50.716;7.086;2023-06-22T04:44:08;100436.31;;;19.97;100.00
32131;BME280;18639;50.716;7.086;2023-06-22T04:46:33;100450.63;;;20.02;100.00
32131;BME280;18639;50.716;7.086;2023-06-22T04:49:07;100439.59;;;19.99;100.00
32131;BME280;18639;50.716;7.086;2023-06-22T04:51:37;100439.44;;;20.00;100.00
32131;BME280;18639;50.716;7.086;2023-06-22T04:54:03;100440.94;;;20.03;100.00
32131;BME280;18639;50.716;7.086;2023-06-22T04:56:31;100436.69;;;20.02;100.00
32131;BME280;18639;50.716;7.086;2023-06-22T04:58:56;100431.59;;;20.00;100.00
32131;BME280;18639;50.716;7.086;2023-06-22T05:01:23;100437.03;;;20.07;100.00
32131;BME280;18639;50.716;7.086;2023-06-22T05:03:48;100433.09;;;20.11;100.00
32131;BME280;18639;50.716;7.086;2023-06-22T05:06:13;100428.53;;;20.13;100.00
32131;BME280;18639;50.716;7.086;2023-06-22T05:08:39;100428.88;;;20.18;100.00
32131;BME280;18639;50.716;7.086;2023-06-22T05:11:05;100434.13;;;20.26;100.00
32131;BME280;18639;50.716;7.086;2023-06-22T05:13:30;100438.06;;;20.30;100.00
32131;BME280;18639;50.716;7.086;2023-06-22T05:15:56;100441.59;;;20.39;100.00
32131;BME280;18639;50.716;7.086;2023-06-22T05:18:27;100427.31;;;20.41;100.00
32131;BME280;18639;50.716;7.086;2023-06-22T05:20:52;100423.22;;;20.47;100.00
32131;BME280;18639;50.716;7.086;2023-06-22T05:23:18;100420.78;;;20.53;100.00
32131;BME280;18639;50.716;7.086;2023-06-22T05:25:44;100424.09;;;20.64;100.00
32131;BME280;18639;50.716;7.086;2023-06-22T05:28:09;100433.66;;;20.73;100.00
32131;BME280;18639;50.716;7.086;2023-06-22T05:30:36;100422.81;;;20.76;100.00
32131;BME280;18639;50.716;7.086;2023-06-22T05:33:01;100421.84;;;20.93;100.00
32131;BME280;18639;50.716;7.086;2023-06-22T05:35:27;100419.34;;;20.99;100.00
32131;BME280;18639;50.716;7.086;2023-06-22T05:37:52;100418.53;;;21.07;100.00
32131;BME280;18639;50.716;7.086;2023-06-22T05:40:17;100417.88;;;21.13;100.00
32131;BME280;18639;50.716;7.086;2023-06-22T05:42:43;100419.88;;;21.27;100.00
32131;BME280;18639;50.716;7.086;2023-06-22T05:45:09;100416.91;;;21.38;100.00
32131;BME280;18639;50.716;7.086;2023-06-22T05:47:34;100418.88;;;21.53;100.00
32131;BME280;18639;50.716;7.086;2023-06-22T05:49:59;100425.38;;;21.65;100.00
32131;BME280;18639;50.716;7.086;2023-06-22T05:52:25;100424.88;;;21.69;100.00
32131;BME280;18639;50.716;7.086;2023-06-22T05:54:50;100429.66;;;21.74;100.00
32131;BME280;18639;50.716;7.086;2023-06-22T05:57:15;100440.31;;;21.80;100.00
32131;BME280;18639;50.716;7.086;2023-06-22T05:59:40;100424.41;;;21.74;100.00
32131;BME280;18639;50.716;7.086;2023-06-22T06:02:06;100441.28;;;21.96;100.00
32131;BME280;18639;50.716;7.086;2023-06-22T06:04:31;100428.94;;;21.96;100.00
32131;BME280;18639;50.716;7.086;2023-06-22T06:06:56;100435.66;;;21.91;100.00
32131;BME280;18639;50.716;7.086;2023-06-22T06:09:22;100448.38;;;21.95;100.00
32131;BME280;18639;50.716;7.086;2023-06-22T06:11:47;100435.84;;;21.89;100.00
32131;BME280;18639;50.716;7.086;2023-06-22T06:14:12;100420.22;;;21.88;100.00
32131;BME280;18639;50.716;7.086;2023-06-22T06:16:38;100430.28;;;21.84;100.00
32131;BME280;18639;50.716;7.086;2023-06-22T06:19:03;100434.53;;;21.85;100.00
32131;BME280;18639;50.716;7.086;2023-06-22T06:21:28;100448.50;;;21.85;100.00
32131;BME280;18639;50.716;7.086;2023-06-22T06:23:54;100461.19;;;21.90;100.00
32131;BME280;18639;50.716;7.086;2023-06-22T06:26:19;100458.72;;;21.89;100.00
32131;BME280;18639;50.716;7.086;2023-06-22T06:28:52;100465.44;;;21.91;100.00
32131;BME280;18639;50.716;7.086;2023-06-22T06:31:18;100464.81;;;21.89;100.00
32131;BME280;18639;50.716;7.086;2023-06-22T06:33:43;100459.03;;;21.85;100.00
32131;BME280;18639;50.716;7.086;2023-06-22T06:36:08;100476.31;;;21.96;100.00
32131;BME280;18639;50.716;7.086;2023-06-22T06:38:34;100469.91;;;21.99;100.00
32131;BME280;18639;50.716;7.086;2023-06-22T06:40:59;100473.19;;;22.01;100.00
32131;BME280;18639;50.716;7.086;2023-06-22T06:43:24;100456.91;;;21.97;100.00
32131;BME280;18639;50.716;7.086;2023-06-22T06:45:50;100452.44;;;22.06;100.00
32131;BME280;18639;50.716;7.086;2023-06-22T06:48:16;100430.22;;;22.08;100.00
32131;BME280;18639;50.716;7.086;2023-06-22T06:50:41;100439.22;;;22.22;100.00
32131;BME280;18639;50.716;7.086;2023-06-22T06:53:09;100419.53;;;22.10;100.00
32131;BME280;18639;50.716;7.086;2023-06-22T06:55:34;100419.16;;;22.13;100.00
32131;BME280;18639;50.716;7.086;2023-06-22T06:57:59;100432.25;;;22.29;100.00
32131;BME280;18639;50.716;7.086;2023-06-22T07:00:25;100436.16;;;22.33;100.00
32131;BME280;18639;50.716;7.086;2023-06-22T07:02:51;100422.69;;;22.36;100.00
32131;BME280;18639;50.716;7.086;2023-06-22T07:05:16;100419.06;;;22.37;100.00
32131;BME280;18639;50.716;7.086;2023-06-22T07:07:41;100421.19;;;22.34;100.00
32131;BME280;18639;50.716;7.086;2023-06-22T07:10:07;100415.91;;;22.42;100.00
32131;BME280;18639;50.716;7.086;2023-06-22T07:12:33;100408.94;;;22.49;100.00
32131;BME280;18639;50.716;7.086;2023-06-22T07:15:03;100384.22;;;22.27;100.00
32131;BME280;18639;50.716;7.086;2023-06-22T07:17:29;100386.38;;;22.23;100.00
32131;BME280;18639;50.716;7.086;2023-06-22T07:19:54;100400.44;;;22.39;100.00
32131;BME280;18639;50.716;7.086;2023-06-22T07:22:22;100346.63;;;22.10;100.00
32131;BME280;18639;50.716;7.086;2023-06-22T07:24:50;100384.00;;;22.37;100.00
32131;BME280;18639;50.716;7.086;2023-06-22T07:27:16;100402.88;;;22.71;100.00
32131;BME280;18639;50.716;7.086;2023-06-22T07:29:44;100373.72;;;22.73;100.00
32131;BME280;18639;50.716;7.086;2023-06-22T07:35:22;100386.22;;;23.16;100.00
32131;BME280;18639;50.716;7.086;2023-06-22T07:37:48;100390.72;;;23.45;100.00
32131;BME280;18639;50.716;7.086;2023-06-22T07:40:13;100394.19;;;23.75;100.00
32131;BME280;18639;50.716;7.086;2023-06-22T07:42:38;100379.44;;;23.80;100.00
32131;BME280;18639;50.716;7.086;2023-06-22T07:45:04;100380.25;;;23.96;100.00
32131;BME280;18639;50.716;7.086;2023-06-22T07:47:30;100369.75;;;24.02;100.00
32131;BME280;18639;50.716;7.086;2023-06-22T07:49:59;100377.66;;;24.17;100.00
32131;BME280;18639;50.716;7.086;2023-06-22T07:52:26;100375.28;;;24.22;100.00
32131;BME280;18639;50.716;7.086;2023-06-22T07:54:52;100368.56;;;24.19;100.00
32131;BME280;18639;50.716;7.086;2023-06-22T07:57:17;100373.41;;;24.37;100.00
32131;BME280;18639;50.716;7.086;2023-06-22T07:59:43;100369.72;;;24.53;100.00
32131;BME280;18639;50.716;7.086;2023-06-22T08:02:09;100373.00;;;24.55;100.00
32131;BME280;18639;50.716;7.086;2023-06-22T08:04:35;100374.13;;;24.67;100.00
32131;BME280;18639;50.716;7.086;2023-06-22T08:07:01;100360.09;;;24.66;100.00
32131;BME280;18639;50.716;7.086;2023-06-22T08:09:31;100346.63;;;24.83;100.00
32131;BME280;18639;50.716;7.086;2023-06-22T08:11:56;100340.44;;;24.97;100.00
32131;BME280;18639;50.716;7.086;2023-06-22T08:14:25;100333.97;;;25.06;100.00
32131;BME280;18639;50.716;7.086;2023-06-22T08:16:51;100347.16;;;25.27;100.00
32131;BME280;18639;50.716;7.086;2023-06-22T08:19:17;100338.44;;;25.33;100.00
32131;BME280;18639;50.716;7.086;2023-06-22T08:21:43;100309.97;;;25.35;100.00
32131;BME280;18639;50.716;7.086;2023-06-22T08:24:08;100326.63;;;25.64;100.00
32131;BME280;18639;50.716;7.086;2023-06-22T08:26:33;100321.13;;;25.65;100.00
32131;BME280;18639;50.716;7.086;2023-06-22T08:29:02;100311.34;;;25.66;100.00
32131;BME280;18639;50.716;7.086;2023-06-22T08:31:27;100300.19;;;25.77;100.00
32131;BME280;18639;50.716;7.086;2023-06-22T08:33:53;100303.94;;;26.02;100.00
32131;BME280;18639;50.716;7.086;2023-06-22T08:36:18;100303.13;;;26.08;100.00
32131;BME280;18639;50.716;7.086;2023-06-22T08:38:43;100292.97;;;26.12;100.00
32131;BME280;18639;50.716;7.086;2023-06-22T08:41:09;100302.78;;;26.24;100.00
32131;BME280;18639;50.716;7.086;2023-06-22T08:43:34;100277.25;;;26.10;100.00
32131;BME280;18639;50.716;7.086;2023-06-22T08:46:00;100286.66;;;26.19;100.00
32131;BME280;18639;50.716;7.086;2023-06-22T08:48:26;100284.00;;;26.06;100.00
32131;BME280;18639;50.716;7.086;2023-06-22T08:50:51;100287.66;;;26.18;100.00
32131;BME280;18639;50.716;7.086;2023-06-22T08:53:16;100287.28;;;26.21;100.00
32131;BME280;18639;50.716;7.086;2023-06-22T08:55:41;100269.09;;;25.98;100.00
32131;BME280;18639;50.716;7.086;2023-06-22T08:58:07;100276.41;;;25.96;100.00
32131;BME280;18639;50.716;7.086;2023-06-22T09:00:32;100265.16;;;25.81;100.00
32131;BME280;18639;50.716;7.086;2023-06-22T09:03:00;100261.50;;;25.82;100.00
32131;BME280;18639;50.716;7.086;2023-06-22T09:05:25;100263.53;;;25.80;100.00
32131;BME280;18639;50.716;7.086;2023-06-22T09:07:51;100255.00;;;25.85;100.00
32131;BME280;18639;50.716;7.086;2023-06-22T09:10:17;100261.72;;;25.87;100.00
32131;BME280;18639;50.716;7.086;2023-06-22T09:12:42;100248.28;;;25.89;100.00
32131;BME280;18639;50.716;7.086;2023-06-22T09:15:08;100238.09;;;25.92;100.00
32131;BME280;18639;50.716;7.086;2023-06-22T09:17:33;100233.22;;;26.03;100.00
32131;BME280;18639;50.716;7.086;2023-06-22T09:19:59;100232.44;;;26.22;100.00
32131;BME280;18639;50.716;7.086;2023-06-22T09:22:24;100226.56;;;26.33;100.00
32131;BME280;18639;50.716;7.086;2023-06-22T09:24:54;100224.09;;;26.45;100.00
32131;BME280;18639;50.716;7.086;2023-06-22T09:27:19;100209.00;;;26.52;99.94
32131;BME280;18639;50.716;7.086;2023-06-22T09:29:44;100184.94;;;26.53;100.00
32131;BME280;18639;50.716;7.086;2023-06-22T09:32:10;100190.22;;;26.66;100.00
32131;BME280;18639;50.716;7.086;2023-06-22T09:34:35;100201.22;;;26.96;100.00
32131;BME280;18639;50.716;7.086;2023-06-22T09:37:01;100194.63;;;27.12;99.02
32131;BME280;18639;50.716;7.086;2023-06-22T09:39:26;100196.44;;;27.18;95.21
32131;BME280;18639;50.716;7.086;2023-06-22T09:41:51;100198.31;;;27.04;97.22
32131;BME280;18639;50.716;7.086;2023-06-22T09:44:17;100188.56;;;26.85;99.05
32131;BME280;18639;50.716;7.086;2023-06-22T09:46:42;100207.13;;;26.78;97.53
32131;BME280;18639;50.716;7.086;2023-06-22T09:49:08;100200.44;;;26.56;99.18
32131;BME280;18639;50.716;7.086;2023-06-22T09:51:33;100214.72;;;26.35;100.00
32131;BME280;18639;50.716;7.086;2023-06-22T09:53:59;100225.31;;;26.16;100.00
32131;BME280;18639;50.716;7.086;2023-06-22T09:56:24;100217.94;;;25.98;100.00
32131;BME280;18639;50.716;7.086;2023-06-22T09:58:49;100218.09;;;25.77;100.00
32131;BME280;18639;50.716;7.086;2023-06-22T10:01:18;100221.97;;;25.68;100.00
32131;BME280;18639;50.716;7.086;2023-06-22T10:03:43;100207.22;;;25.52;100.00
32131;BME280;18639;50.716;7.086;2023-06-22T10:06:08;100210.25;;;25.42;100.00
32131;BME280;18639;50.716;7.086;2023-06-22T10:08:35;100225.09;;;25.37;100.00
32131;BME280;18639;50.716;7.086;2023-06-22T10:11:00;100210.78;;;25.25;100.00
32131;BME280;18639;50.716;7.086;2023-06-22T10:13:26;100235.66;;;25.30;100.00
32131;BME280;18639;50.716;7.086;2023-06-22T10:15:51;100235.81;;;25.22;100.00
32131;BME280;18639;50.716;7.086;2023-06-22T10:18:17;100247.38;;;25.14;100.00
32131;BME280;18639;50.716;7.086;2023-06-22T10:20:44;100261.97;;;25.04;100.00
32131;BME280;18639;50.716;7.086;2023-06-22T10:23:10;100288.94;;;24.93;100.00
32131;BME280;18639;50.716;7.086;2023-06-22T10:25:35;100285.56;;;24.78;100.00
32131;BME280;18639;50.716;7.086;2023-06-22T10:28:00;100296.66;;;24.66;100.00
32131;BME280;18639;50.716;7.086;2023-06-22T10:30:25;100310.00;;;24.58;100.00
32131;BME280;18639;50.716;7.086;2023-06-22T10:32:51;100313.41;;;24.52;100.00
32131;BME280;18639;50.716;7.086;2023-06-22T10:35:16;100312.72;;;24.44;100.00
32131;BME280;18639;50.716;7.086;2023-06-22T10:37:45;100323.78;;;24.32;100.00
32131;BME280;18639;50.716;7.086;2023-06-22T10:40:17;100318.28;;;24.13;100.00
32131;BME280;18639;50.716;7.086;2023-06-22T10:42:44;100319.94;;;23.99;100.00
32131;BME280;18639;50.716;7.086;2023-06-22T10:45:09;100344.00;;;23.89;100.00
32131;BME280;18639;50.716;7.086;2023-06-22T10:47:35;100351.69;;;23.70;100.00
32131;BME280;18639;50.716;7.086;2023-06-22T10:50:01;100341.78;;;23.57;100.00
32131;BME280;18639;50.716;7.086;2023-06-22T10:52:26;100319.94;;;23.34;100.00
32131;BME280;18639;50.716;7.086;2023-06-22T10:54:52;100364.22;;;23.38;100.00
32131;BME280;18639;50.716;7.086;2023-06-22T10:57:18;100355.66;;;23.22;100.00
32131;BME280;18639;50.716;7.086;2023-06-22T10:59:43;100334.72;;;23.05;100.00
32131;BME280;18639;50.716;7.086;2023-06-22T11:02:08;100286.44;;;22.90;100.00
32131;BME280;18639;50.716;7.086;2023-06-22T11:04:33;100263.88;;;22.73;100.00
32131;BME280;18639;50.716;7.086;2023-06-22T11:06:59;100298.31;;;22.72;100.00
32131;BME280;18639;50.716;7.086;2023-06-22T11:09:24;100332.44;;;22.65;100.00
32131;BME280;18639;50.716;7.086;2023-06-22T11:11:50;100347.00;;;22.53;100.00
32131;BME280;18639;50.716;7.086;2023-06-22T11:14:18;100330.97;;;22.40;100.00
32131;BME280;18639;50.716;7.086;2023-06-22T11:16:44;100324.78;;;22.33;100.00
32131;BME280;18639;50.716;7.086;2023-06-22T11:19:09;100282.97;;;22.30;100.00
32131;BME280;18639;50.716;7.086;2023-06-22T11:21:34;100241.78;;;22.37;100.00
32131;BME280;18639;50.716;7.086;2023-06-22T11:24:00;100220.19;;;22.18;100.00
32131;BME280;18639;50.716;7.086;2023-06-22T11:26:26;100246.47;;;22.27;100.00
32131;BME280;18639;50.716;7.086;2023-06-22T11:28:55;100223.53;;;22.12;100.00
32131;BME280;18639;50.716;7.086;2023-06-22T11:31:20;100247.47;;;22.25;100.00
32131;BME280;18639;50.716;7.086;2023-06-22T11:33:45;100258.69;;;22.42;100.00
32131;BME280;18639;50.716;7.086;2023-06-22T11:36:12;100242.91;;;22.57;100.00
32131;BME280;18639;50.716;7.086;2023-06-22T11:38:37;100263.09;;;23.02;100.00
32131;BME280;18639;50.716;7.086;2023-06-22T11:41:05;100253.63;;;23.22;100.00
32131;BME280;18639;50.716;7.086;2023-06-22T11:43:30;100221.91;;;23.16;100.00
32131;BME280;18639;50.716;7.086;2023-06-22T11:48:25;100235.47;;;23.13;100.00
32131;BME280;18639;50.716;7.086;2023-06-22T11:50:50;100220.91;;;23.02;100.00
32131;BME280;18639;50.716;7.086;2023-06-22T11:53:16;100214.63;;;22.88;100.00
32131;BME280;18639;50.716;7.086;2023-06-22T11:55:43;100206.06;;;22.72;100.00
32131;BME280;18639;50.716;7.086;2023-06-22T11:58:08;100198.41;;;22.62;100.00
32131;BME280;18639;50.716;7.086;2023-06-22T12:00:33;100202.25;;;22.59;100.00
32131;BME280;18639;50.716;7.086;2023-06-22T12:02:59;100190.22;;;22.57;100.00
32131;BME280;18639;50.716;7.086;2023-06-22T12:05:27;100181.13;;;22.45;100.00
32131;BME280;18639;50.716;7.086;2023-06-22T12:08:20;100164.75;;;22.35;100.00
32131;BME280;18639;50.716;7.086;2023-06-22T12:11:01;100162.84;;;22.29;100.00
32131;BME280;18639;50.716;7.086;2023-06-22T12:13:26;100129.97;;;22.10;100.00
32131;BME280;18639;50.716;7.086;2023-06-22T12:15:58;100161.66;;;22.16;100.00
32131;BME280;18639;50.716;7.086;2023-06-22T12:18:25;100120.69;;;21.91;100.00
32131;BME280;18639;50.716;7.086;2023-06-22T12:21:21;100163.88;;;22.28;100.00
32131;BME280;18639;50.716;7.086;2023-06-22T12:23:46;100141.22;;;22.18;100.00
32131;BME280;18639;50.716;7.086;2023-06-22T12:26:11;100163.50;;;22.31;100.00
32131;BME280;18639;50.716;7.086;2023-06-22T12:28:36;100109.63;;;22.18;100.00
32131;BME280;18639;50.716;7.086;2023-06-22T12:31:17;100110.47;;;22.34;100.00
32131;BME280;18639;50.716;7.086;2023-06-22T12:33:46;100113.84;;;22.57;100.00
32131;BME280;18639;50.716;7.086;2023-06-22T12:36:13;100114.09;;;22.62;100.00
32131;BME280;18639;50.716;7.086;2023-06-22T12:38:42;100115.50;;;22.73;100.00
32131;BME280;18639;50.716;7.086;2023-06-22T12:41:24;100091.78;;;22.58;100.00
32131;BME280;18639;50.716;7.086;2023-06-22T12:43:52;100096.22;;;22.57;100.00